sensor_id;sensor_type;location;lat;lon;timestamp;P1;durP1;ratioP1;P2;durP2;ratioP2
34459;SDS011;20704;51.260;22.558;2023-02-21T00:00:38;5.07;;;3.00;;
34459;SDS011;20704;51.260;22.558;2023-02-21T00:02:59;5.07;;;3.08;;
34459;SDS011;20704;51.260;22.558;2023-02-21T00:05:20;3.67;;;2.67;;
34459;SDS011;20704;51.260;22.558;2023-02-21T00:07:41;4.00;;;2.92;;
34459;SDS011;20704;51.260;22.558;2023-02-21T00:10:03;2.85;;;2.17;;
34459;SDS011;20704;51.260;22.558;2023-02-21T00:12:25;3.50;;;2.38;;
34459;SDS011;20704;51.260;22.558;2023-02-21T00:14:46;5.13;;;2.67;;
34459;SDS011;20704;51.260;22.558;2023-02-21T00:17:08;4.95;;;2.80;;
34459;SDS011;20704;51.260;22.558;2023-02-21T00:19:29;4.75;;;2.40;;
34459;SDS011;20704;51.260;22.558;2023-02-21T00:21:50;3.00;;;2.58;;
34459;SDS011;20704;51.260;22.558;2023-02-21T00:24:12;2.92;;;2.20;;
34459;SDS011;20704;51.260;22.558;2023-02-21T00:26:34;2.95;;;2.00;;
34459;SDS011;20704;51.260;22.558;2023-02-21T00:28:55;3.00;;;1.98;;
34459;SDS011;20704;51.260;22.558;2023-02-21T00:31:17;3.85;;;2.30;;
34459;SDS011;20704;51.260;22.558;2023-02-21T00:33:38;4.82;;;2.20;;
34459;SDS011;20704;51.260;22.558;2023-02-21T00:35:59;4.25;;;2.25;;
34459;SDS011;20704;51.260;22.558;2023-02-21T00:38:20;2.50;;;1.73;;
34459;SDS011;20704;51.260;22.558;2023-02-21T00:40:42;3.33;;;1.80;;
34459;SDS011;20704;51.260;22.558;2023-02-21T00:43:03;4.10;;;2.10;;
34459;SDS011;20704;51.260;22.558;2023-02-21T00:45:25;2.80;;;1.75;;
34459;SDS011;20704;51.260;22.558;2023-02-21T00:47:46;2.08;;;1.70;;
34459;SDS011;20704;51.260;22.558;2023-02-21T00:50:08;2.85;;;2.08;;
34459;SDS011;20704;51.260;22.558;2023-02-21T00:52:29;3.80;;;1.65;;
34459;SDS011;20704;51.260;22.558;2023-02-21T00:54:50;2.50;;;1.52;;
34459;SDS011;20704;51.260;22.558;2023-02-21T00:57:11;2.13;;;1.63;;
34459;SDS011;20704;51.260;22.558;2023-02-21T00:59:33;2.80;;;1.50;;
34459;SDS011;20704;51.260;22.558;2023-02-21T01:01:54;4.20;;;1.50;;
34459;SDS011;20704;51.260;22.558;2023-02-21T01:04:15;2.00;;;1.48;;
34459;SDS011;20704;51.260;22.558;2023-02-21T01:06:36;2.08;;;1.55;;
34459;SDS011;20704;51.260;22.558;2023-02-21T01:08:58;3.22;;;1.35;;
34459;SDS011;20704;51.260;22.558;2023-02-21T01:11:19;2.17;;;1.55;;
34459;SDS011;20704;51.260;22.558;2023-02-21T01:13:41;2.42;;;1.58;;
34459;SDS011;20704;51.260;22.558;2023-02-21T01:16:02;1.67;;;1.33;;
34459;SDS011;20704;51.260;22.558;2023-02-21T01:18:24;4.07;;;1.50;;
34459;SDS011;20704;51.260;22.558;2023-02-21T01:20:45;1.85;;;1.33;;
34459;SDS011;20704;51.260;22.558;2023-02-21T01:23:06;2.58;;;1.55;;
34459;SDS011;20704;51.260;22.558;2023-02-21T01:25:27;3.22;;;2.08;;
34459;SDS011;20704;51.260;22.558;2023-02-21T01:27:49;3.78;;;2.08;;
34459;SDS011;20704;51.260;22.558;2023-02-21T01:30:10;2.67;;;1.70;;
34459;SDS011;20704;51.260;22.558;2023-02-21T01:32:32;3.83;;;1.63;;
34459;SDS011;20704;51.260;22.558;2023-02-21T01:34:53;2.05;;;1.48;;
34459;SDS011;20704;51.260;22.558;2023-02-21T01:37:15;2.15;;;1.95;;
34459;SDS011;20704;51.260;22.558;2023-02-21T01:39:36;2.47;;;1.67;;
34459;SDS011;20704;51.260;22.558;2023-02-21T01:41:58;3.17;;;1.65;;
34459;SDS011;20704;51.260;22.558;2023-02-21T01:44:33;2.60;;;1.42;;
34459;SDS011;20704;51.260;22.558;2023-02-21T01:46:55;4.07;;;1.70;;
34459;SDS011;20704;51.260;22.558;2023-02-21T01:49:16;2.75;;;1.50;;
34459;SDS011;20704;51.260;22.558;2023-02-21T01:51:38;1.65;;;1.20;;
34459;SDS011;20704;51.260;22.558;2023-02-21T01:54:03;2.83;;;1.83;;
34459;SDS011;20704;51.260;22.558;2023-02-21T01:56:24;2.88;;;1.50;;
34459;SDS011;20704;51.260;22.558;2023-02-21T01:58:47;2.38;;;1.38;;
34459;SDS011;20704;51.260;22.558;2023-02-21T02:01:11;1.65;;;1.27;;
34459;SDS011;20704;51.260;22.558;2023-02-21T02:03:37;4.13;;;1.75;;
34459;SDS011;20704;51.260;22.558;2023-02-21T02:06:01;1.85;;;1.23;;
34459;SDS011;20704;51.260;22.558;2023-02-21T02:08:27;2.13;;;1.42;;
34459;SDS011;20704;51.260;22.558;2023-02-21T02:10:51;1.65;;;1.00;;
34459;SDS011;20704;51.260;22.558;2023-02-21T02:15:28;1.25;;;1.02;;
34459;SDS011;20704;51.260;22.558;2023-02-21T02:17:42;1.40;;;1.17;;
34459;SDS011;20704;51.260;22.558;2023-02-21T02:25:12;2.10;;;1.63;;
34459;SDS011;20704;51.260;22.558;2023-02-21T02:27:39;2.72;;;1.55;;
34459;SDS011;20704;51.260;22.558;2023-02-21T02:36:50;2.50;;;1.33;;
34459;SDS011;20704;51.260;22.558;2023-02-21T02:41:08;3.47;;;1.60;;
34459;SDS011;20704;51.260;22.558;2023-02-21T02:45:26;1.70;;;1.20;;
34459;SDS011;20704;51.260;22.558;2023-02-21T02:47:36;1.77;;;1.20;;
34459;SDS011;20704;51.260;22.558;2023-02-21T02:49:40;3.95;;;1.30;;
34459;SDS011;20704;51.260;22.558;2023-02-21T02:51:45;1.65;;;0.95;;
34459;SDS011;20704;51.260;22.558;2023-02-21T02:53:47;1.42;;;0.98;;
34459;SDS011;20704;51.260;22.558;2023-02-21T02:55:52;1.65;;;0.60;;
34459;SDS011;20704;51.260;22.558;2023-02-21T02:57:54;1.30;;;0.80;;
34459;SDS011;20704;51.260;22.558;2023-02-21T02:59:57;4.75;;;1.08;;
34459;SDS011;20704;51.260;22.558;2023-02-21T03:04:53;2.03;;;0.50;;
34459;SDS011;20704;51.260;22.558;2023-02-21T03:06:42;0.73;;;0.60;;
34459;SDS011;20704;51.260;22.558;2023-02-21T03:11:33;1.30;;;0.73;;
34459;SDS011;20704;51.260;22.558;2023-02-21T03:18:08;1.77;;;0.60;;
34459;SDS011;20704;51.260;22.558;2023-02-21T03:20:17;1.20;;;0.80;;
34459;SDS011;20704;51.260;22.558;2023-02-21T03:22:22;0.73;;;0.50;;
34459;SDS011;20704;51.260;22.558;2023-02-21T03:24:27;1.75;;;1.10;;
34459;SDS011;20704;51.260;22.558;2023-02-21T03:26:31;1.77;;;1.02;;
34459;SDS011;20704;51.260;22.558;2023-02-21T03:28:37;1.83;;;1.08;;
34459;SDS011;20704;51.260;22.558;2023-02-21T03:30:41;1.98;;;1.38;;
34459;SDS011;20704;51.260;22.558;2023-02-21T03:32:46;1.80;;;1.23;;
34459;SDS011;20704;51.260;22.558;2023-02-21T03:34:52;3.22;;;1.75;;
34459;SDS011;20704;51.260;22.558;2023-02-21T03:36:55;3.28;;;1.90;;
34459;SDS011;20704;51.260;22.558;2023-02-21T03:38:58;2.85;;;1.73;;
34459;SDS011;20704;51.260;22.558;2023-02-21T03:41:00;5.63;;;1.88;;
34459;SDS011;20704;51.260;22.558;2023-02-21T03:43:03;3.30;;;2.10;;
34459;SDS011;20704;51.260;22.558;2023-02-21T03:45:09;3.25;;;1.70;;
34459;SDS011;20704;51.260;22.558;2023-02-21T03:47:12;2.88;;;2.03;;
34459;SDS011;20704;51.260;22.558;2023-02-21T03:49:14;2.85;;;2.10;;
34459;SDS011;20704;51.260;22.558;2023-02-21T03:51:17;3.03;;;2.08;;
34459;SDS011;20704;51.260;22.558;2023-02-21T03:53:20;5.45;;;2.30;;
34459;SDS011;20704;51.260;22.558;2023-02-21T03:55:22;3.17;;;1.90;;
34459;SDS011;20704;51.260;22.558;2023-02-21T03:57:25;5.40;;;2.55;;
34459;SDS011;20704;51.260;22.558;2023-02-21T03:59:28;4.50;;;2.22;;
34459;SDS011;20704;51.260;22.558;2023-02-21T04:01:30;2.83;;;1.65;;
34459;SDS011;20704;51.260;22.558;2023-02-21T04:03:33;7.15;;;1.83;;
34459;SDS011;20704;51.260;22.558;2023-02-21T04:05:36;2.65;;;1.67;;
34459;SDS011;20704;51.260;22.558;2023-02-21T04:07:42;3.20;;;1.55;;
34459;SDS011;20704;51.260;22.558;2023-02-21T04:09:44;2.80;;;2.05;;
34459;SDS011;20704;51.260;22.558;2023-02-21T04:11:47;2.53;;;1.95;;
34459;SDS011;20704;51.260;22.558;2023-02-21T04:13:49;5.10;;;2.58;;
34459;SDS011;20704;51.260;22.558;2023-02-21T04:15:52;3.38;;;2.33;;
34459;SDS011;20704;51.260;22.558;2023-02-21T04:17:55;2.83;;;2.15;;
34459;SDS011;20704;51.260;22.558;2023-02-21T04:19:57;3.47;;;2.22;;
34459;SDS011;20704;51.260;22.558;2023-02-21T04:22:00;4.25;;;2.65;;
34459;SDS011;20704;51.260;22.558;2023-02-21T04:24:03;3.97;;;2.70;;
34459;SDS011;20704;51.260;22.558;2023-02-21T04:26:05;3.92;;;2.53;;
34459;SDS011;20704;51.260;22.558;2023-02-21T04:28:08;3.70;;;2.90;;
34459;SDS011;20704;51.260;22.558;2023-02-21T04:30:11;5.55;;;3.03;;
34459;SDS011;20704;51.260;22.558;2023-02-21T04:32:14;4.38;;;2.40;;
34459;SDS011;20704;51.260;22.558;2023-02-21T04:34:16;2.70;;;2.25;;
34459;SDS011;20704;51.260;22.558;2023-02-21T04:36:19;3.30;;;2.35;;
34459;SDS011;20704;51.260;22.558;2023-02-21T04:38:22;2.60;;;1.90;;
34459;SDS011;20704;51.260;22.558;2023-02-21T04:40:24;1.95;;;1.17;;
34459;SDS011;20704;51.260;22.558;2023-02-21T04:42:27;1.75;;;1.30;;
34459;SDS011;20704;51.260;22.558;2023-02-21T04:44:30;4.60;;;1.42;;
34459;SDS011;20704;51.260;22.558;2023-02-21T04:46:32;1.20;;;1.10;;
34459;SDS011;20704;51.260;22.558;2023-02-21T04:48:35;1.55;;;1.00;;
34459;SDS011;20704;51.260;22.558;2023-02-21T04:50:37;2.33;;;1.75;;
34459;SDS011;20704;51.260;22.558;2023-02-21T04:52:40;6.97;;;1.58;;
34459;SDS011;20704;51.260;22.558;2023-02-21T04:54:43;2.03;;;1.15;;
34459;SDS011;20704;51.260;22.558;2023-02-21T04:56:46;2.58;;;1.52;;
34459;SDS011;20704;51.260;22.558;2023-02-21T04:58:49;1.60;;;1.20;;
34459;SDS011;20704;51.260;22.558;2023-02-21T05:00:52;1.77;;;1.30;;
34459;SDS011;20704;51.260;22.558;2023-02-21T05:02:54;3.63;;;1.42;;
34459;SDS011;20704;51.260;22.558;2023-02-21T05:04:57;2.20;;;1.30;;
34459;SDS011;20704;51.260;22.558;2023-02-21T05:07:00;1.98;;;1.20;;
34459;SDS011;20704;51.260;22.558;2023-02-21T05:09:03;1.35;;;0.90;;
34459;SDS011;20704;51.260;22.558;2023-02-21T05:11:05;1.77;;;0.95;;
34459;SDS011;20704;51.260;22.558;2023-02-21T05:13:09;1.10;;;0.47;;
34459;SDS011;20704;51.260;22.558;2023-02-21T05:15:12;0.85;;;0.50;;
34459;SDS011;20704;51.260;22.558;2023-02-21T05:17:15;1.30;;;0.30;;
34459;SDS011;20704;51.260;22.558;2023-02-21T05:19:19;0.73;;;0.32;;
34459;SDS011;20704;51.260;22.558;2023-02-21T05:21:28;1.27;;;0.40;;
34459;SDS011;20704;51.260;22.558;2023-02-21T05:23:31;1.50;;;0.47;;
34459;SDS011;20704;51.260;22.558;2023-02-21T05:25:34;0.80;;;0.43;;
34459;SDS011;20704;51.260;22.558;2023-02-21T05:27:37;0.45;;;0.28;;
34459;SDS011;20704;51.260;22.558;2023-02-21T05:29:49;1.58;;;0.57;;
34459;SDS011;20704;51.260;22.558;2023-02-21T05:31:52;1.75;;;0.30;;
34459;SDS011;20704;51.260;22.558;2023-02-21T05:33:55;0.85;;;0.40;;
34459;SDS011;20704;51.260;22.558;2023-02-21T05:35:58;0.40;;;0.20;;
34459;SDS011;20704;51.260;22.558;2023-02-21T05:38:00;0.98;;;0.43;;
34459;SDS011;20704;51.260;22.558;2023-02-21T05:40:03;1.38;;;0.80;;
34459;SDS011;20704;51.260;22.558;2023-02-21T05:42:06;2.90;;;0.77;;
34459;SDS011;20704;51.260;22.558;2023-02-21T05:44:09;1.17;;;0.55;;
34459;SDS011;20704;51.260;22.558;2023-02-21T05:48:21;3.75;;;0.50;;
34459;SDS011;20704;51.260;22.558;2023-02-21T05:50:25;2.45;;;0.50;;
34459;SDS011;20704;51.260;22.558;2023-02-21T05:52:27;0.40;;;0.30;;
34459;SDS011;20704;51.260;22.558;2023-02-21T05:54:30;0.30;;;0.22;;
34459;SDS011;20704;51.260;22.558;2023-02-21T05:56:36;0.60;;;0.38;;
34459;SDS011;20704;51.260;22.558;2023-02-21T05:58:40;0.65;;;0.40;;
34459;SDS011;20704;51.260;22.558;2023-02-21T06:00:42;1.88;;;0.60;;
34459;SDS011;20704;51.260;22.558;2023-02-21T06:02:45;2.25;;;0.50;;
34459;SDS011;20704;51.260;22.558;2023-02-21T06:04:48;0.43;;;0.40;;
34459;SDS011;20704;51.260;22.558;2023-02-21T06:06:50;1.00;;;0.63;;
34459;SDS011;20704;51.260;22.558;2023-02-21T06:08:54;3.70;;;1.42;;
34459;SDS011;20704;51.260;22.558;2023-02-21T06:10:57;2.17;;;0.57;;
34459;SDS011;20704;51.260;22.558;2023-02-21T06:12:59;1.27;;;0.73;;
34459;SDS011;20704;51.260;22.558;2023-02-21T06:15:02;2.90;;;1.10;;
34459;SDS011;20704;51.260;22.558;2023-02-21T06:17:07;3.00;;;1.00;;
34459;SDS011;20704;51.260;22.558;2023-02-21T06:19:11;2.97;;;1.02;;
34459;SDS011;20704;51.260;22.558;2023-02-21T06:21:14;3.92;;;1.17;;
34459;SDS011;20704;51.260;22.558;2023-02-21T06:23:17;2.50;;;1.50;;
34459;SDS011;20704;51.260;22.558;2023-02-21T06:25:20;4.72;;;1.88;;
34459;SDS011;20704;51.260;22.558;2023-02-21T06:27:22;1.67;;;1.20;;
34459;SDS011;20704;51.260;22.558;2023-02-21T06:29:25;3.97;;;1.48;;
34459;SDS011;20704;51.260;22.558;2023-02-21T06:31:28;2.20;;;1.55;;
34459;SDS011;20704;51.260;22.558;2023-02-21T06:33:30;4.93;;;2.28;;
34459;SDS011;20704;51.260;22.558;2023-02-21T06:35:33;3.25;;;1.77;;
34459;SDS011;20704;51.260;22.558;2023-02-21T06:37:36;2.63;;;1.50;;
34459;SDS011;20704;51.260;22.558;2023-02-21T06:39:39;3.10;;;1.42;;
34459;SDS011;20704;51.260;22.558;2023-02-21T06:41:41;2.42;;;1.55;;
34459;SDS011;20704;51.260;22.558;2023-02-21T06:43:44;1.92;;;1.08;;
34459;SDS011;20704;51.260;22.558;2023-02-21T06:45:46;2.13;;;0.95;;
34459;SDS011;20704;51.260;22.558;2023-02-21T06:47:49;1.85;;;0.93;;
34459;SDS011;20704;51.260;22.558;2023-02-21T06:49:52;6.78;;;1.25;;
34459;SDS011;20704;51.260;22.558;2023-02-21T06:51:54;3.03;;;0.90;;
34459;SDS011;20704;51.260;22.558;2023-02-21T06:53:57;2.53;;;0.80;;
34459;SDS011;20704;51.260;22.558;2023-02-21T06:56:01;7.32;;;0.95;;
34459;SDS011;20704;51.260;22.558;2023-02-21T06:58:03;7.10;;;1.17;;
34459;SDS011;20704;51.260;22.558;2023-02-21T07:00:06;2.63;;;0.80;;
34459;SDS011;20704;51.260;22.558;2023-02-21T07:02:18;3.17;;;1.20;;
34459;SDS011;20704;51.260;22.558;2023-02-21T07:04:21;2.33;;;0.90;;
34459;SDS011;20704;51.260;22.558;2023-02-21T07:06:23;4.30;;;1.23;;
34459;SDS011;20704;51.260;22.558;2023-02-21T07:08:30;7.90;;;1.83;;
34459;SDS011;20704;51.260;22.558;2023-02-21T07:10:32;6.47;;;1.30;;
34459;SDS011;20704;51.260;22.558;2023-02-21T07:12:35;6.40;;;1.33;;
34459;SDS011;20704;51.260;22.558;2023-02-21T07:14:38;3.38;;;0.77;;
34459;SDS011;20704;51.260;22.558;2023-02-21T07:16:41;4.50;;;1.13;;
34459;SDS011;20704;51.260;22.558;2023-02-21T07:18:44;4.57;;;1.08;;
34459;SDS011;20704;51.260;22.558;2023-02-21T07:20:46;5.22;;;1.10;;
34459;SDS011;20704;51.260;22.558;2023-02-21T07:22:50;7.93;;;1.33;;
34459;SDS011;20704;51.260;22.558;2023-02-21T07:24:52;3.05;;;1.08;;
34459;SDS011;20704;51.260;22.558;2023-02-21T07:26:55;3.78;;;1.20;;
34459;SDS011;20704;51.260;22.558;2023-02-21T07:28:58;4.78;;;1.73;;
34459;SDS011;20704;51.260;22.558;2023-02-21T07:31:01;5.28;;;1.73;;
34459;SDS011;20704;51.260;22.558;2023-02-21T07:33:04;8.02;;;1.88;;
34459;SDS011;20704;51.260;22.558;2023-02-21T07:35:06;7.60;;;1.40;;
34459;SDS011;20704;51.260;22.558;2023-02-21T07:37:10;4.82;;;1.92;;
34459;SDS011;20704;51.260;22.558;2023-02-21T07:39:12;8.23;;;1.73;;
34459;SDS011;20704;51.260;22.558;2023-02-21T07:41:15;3.72;;;1.40;;
34459;SDS011;20704;51.260;22.558;2023-02-21T07:43:19;8.40;;;1.90;;
34459;SDS011;20704;51.260;22.558;2023-02-21T07:45:21;7.13;;;1.50;;
34459;SDS011;20704;51.260;22.558;2023-02-21T07:47:24;9.45;;;2.10;;
34459;SDS011;20704;51.260;22.558;2023-02-21T07:49:27;3.95;;;1.60;;
34459;SDS011;20704;51.260;22.558;2023-02-21T07:51:30;8.38;;;1.75;;
34459;SDS011;20704;51.260;22.558;2023-02-21T07:53:32;5.38;;;1.40;;
34459;SDS011;20704;51.260;22.558;2023-02-21T07:55:35;6.10;;;1.33;;
34459;SDS011;20704;51.260;22.558;2023-02-21T07:57:38;4.50;;;1.45;;
34459;SDS011;20704;51.260;22.558;2023-02-21T07:59:40;7.72;;;1.77;;
34459;SDS011;20704;51.260;22.558;2023-02-21T08:01:43;3.70;;;1.13;;
34459;SDS011;20704;51.260;22.558;2023-02-21T08:03:47;3.05;;;1.30;;
34459;SDS011;20704;51.260;22.558;2023-02-21T08:05:50;3.25;;;1.13;;
34459;SDS011;20704;51.260;22.558;2023-02-21T08:07:52;2.75;;;0.98;;
34459;SDS011;20704;51.260;22.558;2023-02-21T08:09:56;3.58;;;0.93;;
34459;SDS011;20704;51.260;22.558;2023-02-21T08:11:59;5.07;;;1.30;;
34459;SDS011;20704;51.260;22.558;2023-02-21T08:14:02;3.55;;;0.90;;
34459;SDS011;20704;51.260;22.558;2023-02-21T08:16:05;4.78;;;1.17;;
34459;SDS011;20704;51.260;22.558;2023-02-21T08:18:18;5.13;;;1.48;;
34459;SDS011;20704;51.260;22.558;2023-02-21T08:20:25;3.10;;;1.20;;
34459;SDS011;20704;51.260;22.558;2023-02-21T08:22:27;5.65;;;1.30;;
34459;SDS011;20704;51.260;22.558;2023-02-21T08:24:30;6.65;;;1.15;;
34459;SDS011;20704;51.260;22.558;2023-02-21T08:26:33;3.03;;;1.13;;
34459;SDS011;20704;51.260;22.558;2023-02-21T08:28:35;3.55;;;1.40;;
34459;SDS011;20704;51.260;22.558;2023-02-21T08:30:38;3.10;;;0.85;;
34459;SDS011;20704;51.260;22.558;2023-02-21T08:32:41;6.80;;;0.90;;
34459;SDS011;20704;51.260;22.558;2023-02-21T08:34:45;2.05;;;1.15;;
34459;SDS011;20704;51.260;22.558;2023-02-21T08:36:48;3.78;;;1.42;;
34459;SDS011;20704;51.260;22.558;2023-02-21T08:38:50;4.03;;;0.90;;
34459;SDS011;20704;51.260;22.558;2023-02-21T08:40:53;4.82;;;0.98;;
34459;SDS011;20704;51.260;22.558;2023-02-21T08:42:58;3.20;;;0.80;;
34459;SDS011;20704;51.260;22.558;2023-02-21T08:45:01;2.17;;;0.95;;
34459;SDS011;20704;51.260;22.558;2023-02-21T08:47:04;2.10;;;1.08;;
34459;SDS011;20704;51.260;22.558;2023-02-21T08:49:08;6.13;;;1.40;;
34459;SDS011;20704;51.260;22.558;2023-02-21T08:51:11;7.00;;;0.82;;
34459;SDS011;20704;51.260;22.558;2023-02-21T08:53:14;3.35;;;0.95;;
34459;SDS011;20704;51.260;22.558;2023-02-21T08:55:17;4.07;;;0.93;;
34459;SDS011;20704;51.260;22.558;2023-02-21T08:57:20;9.38;;;1.05;;
34459;SDS011;20704;51.260;22.558;2023-02-21T08:59:24;4.22;;;1.40;;
34459;SDS011;20704;51.260;22.558;2023-02-21T09:01:32;6.47;;;1.30;;
34459;SDS011;20704;51.260;22.558;2023-02-21T09:03:36;2.33;;;0.90;;
34459;SDS011;20704;51.260;22.558;2023-02-21T09:05:39;6.97;;;1.30;;
34459;SDS011;20704;51.260;22.558;2023-02-21T09:07:42;4.60;;;1.35;;
34459;SDS011;20704;51.260;22.558;2023-02-21T09:09:44;5.80;;;1.60;;
34459;SDS011;20704;51.260;22.558;2023-02-21T09:11:47;6.72;;;1.80;;
34459;SDS011;20704;51.260;22.558;2023-02-21T09:13:50;5.20;;;1.42;;
34459;SDS011;20704;51.260;22.558;2023-02-21T09:15:56;7.25;;;2.58;;
34459;SDS011;20704;51.260;22.558;2023-02-21T09:17:58;6.82;;;1.15;;
34459;SDS011;20704;51.260;22.558;2023-02-21T09:20:04;7.60;;;1.67;;
34459;SDS011;20704;51.260;22.558;2023-02-21T09:22:08;8.13;;;2.13;;
34459;SDS011;20704;51.260;22.558;2023-02-21T09:24:11;7.68;;;1.92;;
34459;SDS011;20704;51.260;22.558;2023-02-21T09:26:14;5.85;;;2.10;;
34459;SDS011;20704;51.260;22.558;2023-02-21T09:28:18;5.65;;;1.10;;
34459;SDS011;20704;51.260;22.558;2023-02-21T09:30:22;3.50;;;1.77;;
34459;SDS011;20704;51.260;22.558;2023-02-21T09:32:27;5.50;;;1.48;;
34459;SDS011;20704;51.260;22.558;2023-02-21T09:34:30;4.15;;;1.60;;
34459;SDS011;20704;51.260;22.558;2023-02-21T09:36:34;10.20;;;1.80;;
34459;SDS011;20704;51.260;22.558;2023-02-21T09:38:37;4.00;;;2.30;;
34459;SDS011;20704;51.260;22.558;2023-02-21T09:40:44;4.60;;;1.67;;
34459;SDS011;20704;51.260;22.558;2023-02-21T09:42:51;4.05;;;1.35;;
34459;SDS011;20704;51.260;22.558;2023-02-21T09:44:57;6.00;;;1.95;;
34459;SDS011;20704;51.260;22.558;2023-02-21T09:47:01;3.28;;;1.17;;
34459;SDS011;20704;51.260;22.558;2023-02-21T09:49:09;3.65;;;1.45;;
34459;SDS011;20704;51.260;22.558;2023-02-21T09:51:16;4.28;;;1.10;;
34459;SDS011;20704;51.260;22.558;2023-02-21T09:53:23;9.48;;;2.17;;
34459;SDS011;20704;51.260;22.558;2023-02-21T09:55:35;3.40;;;1.60;;
34459;SDS011;20704;51.260;22.558;2023-02-21T09:57:39;4.07;;;1.30;;
34459;SDS011;20704;51.260;22.558;2023-02-21T09:59:42;5.57;;;1.15;;
34459;SDS011;20704;51.260;22.558;2023-02-21T10:10:55;2.53;;;1.10;;
34459;SDS011;20704;51.260;22.558;2023-02-21T10:19:40;3.05;;;1.35;;
34459;SDS011;20704;51.260;22.558;2023-02-21T10:21:45;6.15;;;1.73;;
34459;SDS011;20704;51.260;22.558;2023-02-21T10:23:50;4.68;;;1.17;;
34459;SDS011;20704;51.260;22.558;2023-02-21T10:25:56;3.92;;;1.23;;
34459;SDS011;20704;51.260;22.558;2023-02-21T10:28:03;6.57;;;1.38;;
34459;SDS011;20704;51.260;22.558;2023-02-21T10:30:06;5.10;;;1.70;;
34459;SDS011;20704;51.260;22.558;2023-02-21T10:32:11;4.82;;;1.30;;
34459;SDS011;20704;51.260;22.558;2023-02-21T10:34:19;3.15;;;1.00;;
34459;SDS011;20704;51.260;22.558;2023-02-21T10:36:27;3.97;;;1.27;;
34459;SDS011;20704;51.260;22.558;2023-02-21T10:38:29;10.57;;;2.13;;
34459;SDS011;20704;51.260;22.558;2023-02-21T10:45:03;2.90;;;1.27;;
34459;SDS011;20704;51.260;22.558;2023-02-21T10:51:32;7.55;;;1.33;;
34459;SDS011;20704;51.260;22.558;2023-02-21T10:53:36;2.70;;;0.95;;
34459;SDS011;20704;51.260;22.558;2023-02-21T10:55:40;3.78;;;1.30;;
34459;SDS011;20704;51.260;22.558;2023-02-21T10:57:46;5.38;;;1.30;;
34459;SDS011;20704;51.260;22.558;2023-02-21T10:59:54;2.73;;;1.00;;
34459;SDS011;20704;51.260;22.558;2023-02-21T11:01:57;4.93;;;1.73;;
34459;SDS011;20704;51.260;22.558;2023-02-21T11:04:06;3.83;;;1.27;;
34459;SDS011;20704;51.260;22.558;2023-02-21T11:06:31;7.60;;;1.23;;
34459;SDS011;20704;51.260;22.558;2023-02-21T11:08:41;4.57;;;0.95;;
34459;SDS011;20704;51.260;22.558;2023-02-21T11:10:45;3.65;;;1.20;;
34459;SDS011;20704;51.260;22.558;2023-02-21T11:12:56;3.30;;;0.90;;
34459;SDS011;20704;51.260;22.558;2023-02-21T11:15:05;3.63;;;1.10;;
34459;SDS011;20704;51.260;22.558;2023-02-21T11:17:19;4.47;;;1.33;;
34459;SDS011;20704;51.260;22.558;2023-02-21T11:19:23;4.45;;;1.05;;
34459;SDS011;20704;51.260;22.558;2023-02-21T11:21:26;2.92;;;1.23;;
34459;SDS011;20704;51.260;22.558;2023-02-21T11:23:29;4.82;;;1.45;;
34459;SDS011;20704;51.260;22.558;2023-02-21T11:25:37;3.58;;;1.10;;
34459;SDS011;20704;51.260;22.558;2023-02-21T11:27:40;4.93;;;1.20;;
34459;SDS011;20704;51.260;22.558;2023-02-21T11:29:47;3.20;;;1.10;;
34459;SDS011;20704;51.260;22.558;2023-02-21T11:31:52;3.70;;;1.40;;
34459;SDS011;20704;51.260;22.558;2023-02-21T11:33:56;2.38;;;0.93;;
34459;SDS011;20704;51.260;22.558;2023-02-21T11:36:12;4.15;;;1.42;;
34459;SDS011;20704;51.260;22.558;2023-02-21T11:38:32;12.07;;;2.17;;
34459;SDS011;20704;51.260;22.558;2023-02-21T11:40:41;6.50;;;2.47;;
34459;SDS011;20704;51.260;22.558;2023-02-21T11:42:51;4.28;;;1.15;;
34459;SDS011;20704;51.260;22.558;2023-02-21T11:45:27;2.92;;;0.95;;
34459;SDS011;20704;51.260;22.558;2023-02-21T11:47:32;6.60;;;1.00;;
34459;SDS011;20704;51.260;22.558;2023-02-21T11:52:10;2.25;;;1.00;;
34459;SDS011;20704;51.260;22.558;2023-02-21T11:54:15;5.97;;;1.20;;
34459;SDS011;20704;51.260;22.558;2023-02-21T12:02:50;5.75;;;1.17;;
34459;SDS011;20704;51.260;22.558;2023-02-21T12:07:16;6.05;;;1.77;;
34459;SDS011;20704;51.260;22.558;2023-02-21T12:11:55;6.57;;;1.77;;
34459;SDS011;20704;51.260;22.558;2023-02-21T12:14:08;4.63;;;1.55;;
34459;SDS011;20704;51.260;22.558;2023-02-21T12:21:18;7.70;;;3.33;;
34459;SDS011;20704;51.260;22.558;2023-02-21T12:25:54;5.57;;;1.38;;
34459;SDS011;20704;51.260;22.558;2023-02-21T12:28:29;4.38;;;1.45;;
34459;SDS011;20704;51.260;22.558;2023-02-21T12:31:31;5.03;;;1.20;;
34459;SDS011;20704;51.260;22.558;2023-02-21T12:37:41;4.35;;;1.60;;
34459;SDS011;20704;51.260;22.558;2023-02-21T12:47:23;6.47;;;1.45;;
34459;SDS011;20704;51.260;22.558;2023-02-21T12:50:00;7.53;;;1.92;;
34459;SDS011;20704;51.260;22.558;2023-02-21T12:56:56;3.75;;;1.38;;
34459;SDS011;20704;51.260;22.558;2023-02-21T13:01:33;3.90;;;1.98;;
34459;SDS011;20704;51.260;22.558;2023-02-21T13:06:08;4.35;;;1.25;;
34459;SDS011;20704;51.260;22.558;2023-02-21T13:10:57;6.32;;;1.63;;
34459;SDS011;20704;51.260;22.558;2023-02-21T13:15:15;6.35;;;1.98;;
34459;SDS011;20704;51.260;22.558;2023-02-21T13:17:18;8.02;;;1.98;;
34459;SDS011;20704;51.260;22.558;2023-02-21T13:19:21;6.95;;;1.70;;
34459;SDS011;20704;51.260;22.558;2023-02-21T13:24:43;4.75;;;1.52;;
34459;SDS011;20704;51.260;22.558;2023-02-21T13:29:29;8.13;;;1.73;;
34459;SDS011;20704;51.260;22.558;2023-02-21T13:31:33;4.45;;;1.65;;
34459;SDS011;20704;51.260;22.558;2023-02-21T13:33:40;5.22;;;1.63;;
34459;SDS011;20704;51.260;22.558;2023-02-21T13:35:44;4.97;;;1.38;;
34459;SDS011;20704;51.260;22.558;2023-02-21T13:37:50;8.32;;;1.83;;
34459;SDS011;20704;51.260;22.558;2023-02-21T13:39:57;8.43;;;1.70;;
34459;SDS011;20704;51.260;22.558;2023-02-21T13:42:27;4.70;;;1.40;;
34459;SDS011;20704;51.260;22.558;2023-02-21T13:44:32;11.73;;;1.67;;
34459;SDS011;20704;51.260;22.558;2023-02-21T13:48:45;6.03;;;1.92;;
34459;SDS011;20704;51.260;22.558;2023-02-21T13:51:45;7.53;;;2.08;;
34459;SDS011;20704;51.260;22.558;2023-02-21T13:54:07;7.07;;;1.50;;
34459;SDS011;20704;51.260;22.558;2023-02-21T13:56:14;7.00;;;1.60;;
34459;SDS011;20704;51.260;22.558;2023-02-21T14:02:27;4.10;;;1.45;;
34459;SDS011;20704;51.260;22.558;2023-02-21T14:05:07;4.20;;;1.48;;
34459;SDS011;20704;51.260;22.558;2023-02-21T14:07:04;6.55;;;1.42;;
34459;SDS011;20704;51.260;22.558;2023-02-21T14:09:12;11.13;;;1.67;;
34459;SDS011;20704;51.260;22.558;2023-02-21T14:15:56;3.78;;;1.50;;
34459;SDS011;20704;51.260;22.558;2023-02-21T14:18:01;5.60;;;1.60;;
34459;SDS011;20704;51.260;22.558;2023-02-21T14:20:04;10.23;;;2.47;;
34459;SDS011;20704;51.260;22.558;2023-02-21T14:24:33;10.98;;;2.83;;
34459;SDS011;20704;51.260;22.558;2023-02-21T14:28:47;8.77;;;2.60;;
34459;SDS011;20704;51.260;22.558;2023-02-21T14:31:02;14.70;;;4.85;;
34459;SDS011;20704;51.260;22.558;2023-02-21T14:33:09;5.10;;;2.80;;
34459;SDS011;20704;51.260;22.558;2023-02-21T14:35:31;12.18;;;3.15;;
34459;SDS011;20704;51.260;22.558;2023-02-21T14:44:38;10.65;;;3.22;;
34459;SDS011;20704;51.260;22.558;2023-02-21T14:56:19;11.95;;;4.20;;
34459;SDS011;20704;51.260;22.558;2023-02-21T15:01:01;7.03;;;3.53;;
34459;SDS011;20704;51.260;22.558;2023-02-21T15:03:23;9.93;;;3.65;;